Shell Lake, Canada
Current Conditions -  °F | °C
As of 4:00 AM on Tuesday 27 Jan 2015 (Local Time) from CYPA Reporting Station
Broken Clouds Broken Clouds  
Wind Chill: 28°   Ceiling: 8000
Heat Index: 28°   Visibility: 15mi
Dew Point: 27°   Wind: 3mph
Humidity: 93%   Direction: 260°W
Pressure: 29.81"   Gusts: NA
Location:  53.3°N, 107.05°W
Report Text: CYPA 271000Z 26003KT 15SM BKN080 M02/M03 A2981 RMK AC7 SLP117
Loading
Personal Weather Stations






























Interactive Weather Map New forecast layout! Learn more

10-Day Weather Forecast

Advertisements
Track Severe Weather on mobile